Time;durP1;ratioP1;P1;durP2;ratioP2;P2;SDS_P1;SDS_P2;PMS_P1;PMS_P2;Temp;Humidity;BMP_temperature;BMP_pressure;BME280_temperature;BME280_humidity;BME280_pressure;Samples;Min_cycle;Max_cycle;Signal;HPM_P1;HPM_P2
2022/01/09 00:00:30;;;;;;;441.03;421.13;;;6.40;99.90;;;;;;4441832;32;20160;-62
2022/01/09 00:02:59;;;;;;;455.33;434.67;;;6.40;99.90;;;;;;4450288;32;20494;-64
2022/01/09 00:05:26;;;;;;;453.37;432.33;;;6.40;99.90;;;;;;4451257;32;20242;-62
2022/01/09 00:07:57;;;;;;;479.13;456.93;;;6.40;99.90;;;;;;4444099;32;20269;-63
2022/01/09 00:10:26;;;;;;;468.37;446.53;;;6.50;99.90;;;;;;4447906;32;20175;-63
2022/01/09 00:12:53;;;;;;;482.67;458.73;;;6.50;99.90;;;;;;4448287;32;20235;-63
2022/01/09 00:15:20;;;;;;;483.87;459.77;;;6.50;99.90;;;;;;4441122;32;20485;-63
2022/01/09 00:17:47;;;;;;;467.63;445.13;;;6.50;99.90;;;;;;4449202;32;20159;-61
2022/01/09 00:20:15;;;;;;;466.70;444.33;;;6.50;99.90;;;;;;4446060;32;20216;-65
2022/01/09 00:22:45;;;;;;;488.27;463.87;;;6.50;99.90;;;;;;4442853;32;20154;-63
2022/01/09 00:25:16;;;;;;;494.00;469.87;;;6.50;99.90;;;;;;4450621;32;20159;-61
2022/01/09 00:27:44;;;;;;;489.47;464.93;;;6.50;99.90;;;;;;4441737;32;20154;-61
2022/01/09 00:30:14;;;;;;;498.40;472.80;;;6.50;99.90;;;;;;4449600;32;20214;-62
2022/01/09 00:32:41;;;;;;;498.70;472.40;;;6.60;99.90;;;;;;4446072;32;20478;-64
2022/01/09 00:35:09;;;;;;;498.10;471.43;;;6.60;99.90;;;;;;4439997;32;20489;-61
2022/01/09 00:37:36;;;;;;;465.53;442.03;;;6.60;99.90;;;;;;4440849;32;20193;-61
2022/01/09 00:40:04;;;;;;;485.90;459.70;;;6.60;99.90;;;;;;4447319;32;20359;-65
2022/01/09 00:42:31;;;;;;;490.53;463.87;;;6.60;99.90;;;;;;4442300;32;20170;-61
2022/01/09 00:44:59;;;;;;;486.83;461.73;;;6.60;99.90;;;;;;4437829;32;20175;-65
2022/01/09 00:47:28;;;;;;;493.73;467.57;;;6.60;99.90;;;;;;4449395;32;20233;-61
2022/01/09 00:49:55;;;;;;;501.67;473.57;;;6.60;99.90;;;;;;4437331;32;20627;-63
2022/01/09 00:52:22;;;;;;;486.57;460.73;;;6.60;99.90;;;;;;4438974;32;20188;-62
2022/01/09 00:54:49;;;;;;;494.90;466.97;;;6.60;99.90;;;;;;4447590;32;20219;-65
2022/01/09 00:57:17;;;;;;;492.60;466.73;;;6.60;99.90;;;;;;4438330;32;20563;-62
2022/01/09 00:59:45;;;;;;;508.90;480.43;;;6.60;99.90;;;;;;4442497;32;20166;-65
2022/01/09 01:02:13;;;;;;;486.13;460.80;;;6.60;99.90;;;;;;4440413;32;20147;-64
2022/01/09 01:04:40;;;;;;;469.13;444.80;;;6.60;99.90;;;;;;4439767;32;20147;-62
2022/01/09 01:07:09;;;;;;;469.93;444.93;;;6.50;99.90;;;;;;4441595;32;20169;-62
2022/01/09 01:09:35;;;;;;;480.63;454.57;;;6.60;99.90;;;;;;4436002;32;20186;-62
2022/01/09 01:12:03;;;;;;;474.03;448.93;;;6.60;99.90;;;;;;4437044;32;20199;-62
2022/01/09 01:14:32;;;;;;;477.70;452.17;;;6.50;99.90;;;;;;4446236;32;20162;-62
2022/01/09 01:16:58;;;;;;;484.33;458.43;;;6.50;99.90;;;;;;4441278;32;20155;-63
2022/01/09 01:19:27;;;;;;;457.77;432.97;;;6.60;99.90;;;;;;4451606;32;20230;-64
2022/01/09 01:21:58;;;;;;;472.77;447.00;;;6.50;99.90;;;;;;4443629;32;20179;-63
2022/01/09 01:24:25;;;;;;;442.13;419.07;;;6.50;99.90;;;;;;4445224;32;20186;-64
2022/01/09 01:26:52;;;;;;;422.10;401.00;;;6.60;99.90;;;;;;4441075;32;20183;-63
2022/01/09 01:29:19;;;;;;;451.93;427.43;;;6.50;99.90;;;;;;4438677;32;20215;-63
2022/01/09 01:31:46;;;;;;;461.70;437.30;;;6.50;99.90;;;;;;4437367;32;20159;-63
2022/01/09 01:34:14;;;;;;;443.57;420.27;;;6.50;99.90;;;;;;4444347;32;20151;-64
2022/01/09 01:36:43;;;;;;;458.80;434.93;;;6.50;99.90;;;;;;4442822;32;20170;-63
2022/01/09 01:39:10;;;;;;;418.53;397.33;;;6.40;99.90;;;;;;4448749;32;20489;-63
2022/01/09 01:41:41;;;;;;;429.53;407.60;;;6.50;99.90;;;;;;4440864;32;20194;-64
2022/01/09 01:44:10;;;;;;;390.97;370.37;;;6.40;99.90;;;;;;4441900;32;20174;-65
2022/01/09 01:46:37;;;;;;;401.43;381.10;;;6.50;99.90;;;;;;4447078;32;20511;-65
2022/01/09 01:49:04;;;;;;;407.20;387.27;;;6.50;99.90;;;;;;4439219;32;20444;-66
2022/01/09 01:51:31;;;;;;;390.10;369.40;;;6.50;99.90;;;;;;4439145;32;20170;-65
2022/01/09 01:53:59;;;;;;;389.33;369.60;;;6.50;99.90;;;;;;4446252;32;20195;-62
2022/01/09 01:56:28;;;;;;;413.50;391.87;;;6.50;99.90;;;;;;4445498;32;20188;-65
2022/01/09 01:58:56;;;;;;;370.80;351.47;;;6.50;99.90;;;;;;4440387;32;20209;-62
2022/01/09 02:01:23;;;;;;;386.87;366.87;;;6.50;99.90;;;;;;4450962;32;20154;-63
2022/01/09 02:03:49;;;;;;;374.43;354.93;;;6.50;99.90;;;;;;4444815;32;20189;-65
2022/01/09 02:06:18;;;;;;;381.33;361.00;;;6.60;99.90;;;;;;4444024;32;20597;-65
2022/01/09 02:08:45;;;;;;;374.87;355.20;;;6.50;99.90;;;;;;4447000;32;20147;-65
2022/01/09 02:11:17;;;;;;;394.03;374.90;;;6.50;99.90;;;;;;4439443;32;20159;-65
2022/01/09 02:13:46;;;;;;;390.33;370.83;;;6.40;99.90;;;;;;4440507;32;20567;-65
2022/01/09 02:16:17;;;;;;;379.90;360.67;;;6.40;99.90;;;;;;4436748;32;20147;-65
2022/01/09 02:18:47;;;;;;;362.83;345.17;;;6.40;99.90;;;;;;4437653;32;20170;-64
2022/01/09 02:21:19;;;;;;;378.77;360.23;;;6.50;99.90;;;;;;4448661;32;20155;-64
2022/01/09 02:23:49;;;;;;;381.80;363.50;;;6.50;99.90;;;;;;4442742;32;20581;-63
2022/01/09 02:26:20;;;;;;;369.57;351.93;;;6.50;99.90;;;;;;4443425;32;20186;-63
2022/01/09 02:28:47;;;;;;;363.13;345.60;;;6.50;99.90;;;;;;4442283;32;20490;-64
2022/01/09 02:31:16;;;;;;;361.30;343.40;;;6.50;99.90;;;;;;4439471;32;20169;-64
2022/01/09 02:33:48;;;;;;;357.37;340.37;;;6.50;99.90;;;;;;4451631;32;20161;-64
2022/01/09 02:36:19;;;;;;;351.80;335.23;;;6.50;99.90;;;;;;4444066;32;20209;-64
2022/01/09 02:38:46;;;;;;;367.43;350.20;;;6.60;99.90;;;;;;4436539;32;20234;-64
2022/01/09 02:41:18;;;;;;;368.10;349.83;;;6.60;99.90;;;;;;4449038;32;20237;-64
2022/01/09 02:43:45;;;;;;;355.73;338.03;;;6.60;99.90;;;;;;4451616;32;20203;-65
2022/01/09 02:46:31;;;;;;;349.23;331.80;;;6.60;99.90;;;;;;4439383;32;20171;-65
2022/01/09 02:48:58;;;;;;;345.17;328.93;;;6.60;99.90;;;;;;4437658;32;20196;-65
2022/01/09 02:51:26;;;;;;;340.37;323.80;;;6.60;99.90;;;;;;4437142;32;20194;-65
2022/01/09 02:54:07;;;;;;;337.60;321.70;;;6.60;99.90;;;;;;4440789;32;20520;-65
2022/01/09 02:56:34;;;;;;;332.13;315.80;;;6.60;99.90;;;;;;4447065;32;20587;-65
2022/01/09 02:59:02;;;;;;;337.03;321.17;;;6.60;99.90;;;;;;4448876;32;20202;-65
2022/01/09 03:01:31;;;;;;;358.80;341.43;;;6.50;99.90;;;;;;4445447;32;20634;-65
2022/01/09 03:04:00;;;;;;;342.50;323.90;;;6.50;99.90;;;;;;4441620;32;20498;-65
2022/01/09 03:06:28;;;;;;;357.03;338.63;;;6.40;99.90;;;;;;4442736;32;20257;-65
2022/01/09 03:09:00;;;;;;;350.10;333.07;;;6.40;99.90;;;;;;4446957;32;20178;-65
2022/01/09 03:11:27;;;;;;;360.37;342.83;;;6.40;99.90;;;;;;4449083;32;20554;-65
2022/01/09 03:14:00;;;;;;;363.83;347.40;;;6.40;99.90;;;;;;4441216;32;20159;-65
2022/01/09 03:16:27;;;;;;;363.23;345.87;;;6.40;99.90;;;;;;4441504;32;20546;-65
2022/01/09 03:18:53;;;;;;;334.87;319.03;;;6.40;99.90;;;;;;4445018;32;20200;-65
2022/01/09 03:21:22;;;;;;;317.50;302.63;;;6.40;99.90;;;;;;4448767;32;20469;-65
2022/01/09 03:23:52;;;;;;;331.07;315.10;;;6.40;99.90;;;;;;4440423;32;20159;-62
2022/01/09 03:26:24;;;;;;;339.80;323.17;;;6.30;99.90;;;;;;4444433;32;20575;-63
2022/01/09 03:28:53;;;;;;;318.30;303.13;;;6.40;99.90;;;;;;4448639;32;20151;-63
2022/01/09 03:31:19;;;;;;;310.30;295.03;;;6.40;99.90;;;;;;4438165;32;20203;-63
2022/01/09 03:33:49;;;;;;;304.37;289.63;;;6.30;99.90;;;;;;4441258;32;20221;-65
2022/01/09 03:36:16;;;;;;;321.37;305.67;;;6.30;99.90;;;;;;4445912;32;20195;-63
2022/01/09 03:38:45;;;;;;;303.20;289.10;;;6.30;99.90;;;;;;4444185;32;20185;-65
2022/01/09 03:41:16;;;;;;;299.70;285.27;;;6.30;99.90;;;;;;4452837;32;20158;-65
2022/01/09 03:43:46;;;;;;;297.00;282.83;;;6.20;99.90;;;;;;4442286;32;20155;-65
2022/01/09 03:46:13;;;;;;;306.67;292.90;;;6.30;99.90;;;;;;4447460;32;20552;-65
2022/01/09 03:48:41;;;;;;;301.63;287.23;;;6.20;99.90;;;;;;4448185;32;20166;-64
2022/01/09 03:51:10;;;;;;;308.77;293.23;;;6.20;99.90;;;;;;4440854;32;20211;-63
2022/01/09 03:53:37;;;;;;;307.77;293.33;;;6.20;99.90;;;;;;4450420;32;20155;-64
2022/01/09 03:56:07;;;;;;;304.83;290.93;;;6.10;99.90;;;;;;4444392;32;20170;-63
2022/01/09 03:58:36;;;;;;;298.87;285.60;;;6.00;99.90;;;;;;4451442;32;20211;-63
2022/01/09 04:01:03;;;;;;;310.90;296.57;;;6.00;99.90;;;;;;4440534;32;20154;-63
2022/01/09 04:03:30;;;;;;;309.40;294.77;;;6.00;99.90;;;;;;4442739;32;20177;-65
2022/01/09 04:06:00;;;;;;;303.60;289.80;;;6.00;99.90;;;;;;4445611;32;20571;-65
2022/01/09 04:08:27;;;;;;;317.23;302.50;;;5.90;99.90;;;;;;4446235;32;20155;-63
2022/01/09 04:10:54;;;;;;;306.93;292.27;;;5.80;99.90;;;;;;4444642;32;20587;-64
2022/01/09 04:13:21;;;;;;;298.57;284.87;;;5.90;99.90;;;;;;4441208;32;20155;-64
2022/01/09 04:15:49;;;;;;;302.10;287.80;;;5.90;99.90;;;;;;4446350;32;20162;-64
2022/01/09 04:18:17;;;;;;;292.40;279.00;;;5.90;99.90;;;;;;4438672;32;20233;-64
2022/01/09 04:20:44;;;;;;;305.33;291.03;;;6.00;99.90;;;;;;4444898;32;20562;-64
2022/01/09 04:23:12;;;;;;;300.33;286.40;;;5.90;99.90;;;;;;4442702;32;20207;-64
2022/01/09 04:25:39;;;;;;;289.93;276.87;;;5.80;99.90;;;;;;4445640;32;20167;-64
2022/01/09 04:28:11;;;;;;;307.30;293.03;;;5.80;99.90;;;;;;4440412;32;20175;-64
2022/01/09 04:30:41;;;;;;;285.67;271.63;;;5.80;99.90;;;;;;4445862;32;20170;-64
2022/01/09 04:33:25;;;;;;;299.30;285.47;;;5.80;99.90;;;;;;4442542;32;20193;-64
2022/01/09 04:35:52;;;;;;;308.07;292.87;;;5.70;99.90;;;;;;4443535;32;20186;-64
2022/01/09 04:38:18;;;;;;;291.10;277.97;;;5.70;99.90;;;;;;4437401;32;20169;-64
2022/01/09 04:40:46;;;;;;;319.73;304.40;;;5.60;99.90;;;;;;4448635;32;20605;-63
2022/01/09 04:43:17;;;;;;;307.17;291.70;;;5.60;99.90;;;;;;4441117;32;20489;-63
2022/01/09 04:45:45;;;;;;;288.20;275.13;;;5.60;99.90;;;;;;4450070;32;20147;-63
2022/01/09 04:48:15;;;;;;;317.93;303.20;;;5.70;99.90;;;;;;4436969;32;20300;-63
2022/01/09 04:50:45;;;;;;;304.37;290.30;;;5.60;99.90;;;;;;4447757;32;20582;-64
2022/01/09 04:53:19;;;;;;;314.57;300.30;;;5.70;99.90;;;;;;4439104;32;20615;-64
2022/01/09 04:55:49;;;;;;;292.53;279.23;;;5.80;99.90;;;;;;4438106;32;20587;-64
2022/01/09 04:58:19;;;;;;;325.20;310.40;;;5.70;99.90;;;;;;4453630;32;20547;-64
2022/01/09 05:00:48;;;;;;;330.40;314.87;;;5.70;99.90;;;;;;4453105;32;20218;-64
2022/01/09 05:03:17;;;;;;;347.27;331.57;;;5.60;99.90;;;;;;4439549;32;20490;-63
2022/01/09 05:05:45;;;;;;;318.47;303.87;;;5.70;99.90;;;;;;4441400;32;20171;-64
2022/01/09 05:08:12;;;;;;;332.27;317.30;;;5.70;99.90;;;;;;4442128;32;20147;-64
2022/01/09 05:10:39;;;;;;;323.57;308.90;;;5.70;99.90;;;;;;4437394;32;20233;-63
2022/01/09 05:13:06;;;;;;;311.47;296.87;;;5.70;99.90;;;;;;4447623;32;20153;-64
2022/01/09 05:15:35;;;;;;;339.03;323.53;;;5.70;99.90;;;;;;4451398;32;20183;-64
2022/01/09 05:18:13;;;;;;;317.30;301.83;;;5.60;99.90;;;;;;4452427;32;20227;-64
2022/01/09 05:20:42;;;;;;;315.07;300.80;;;5.70;99.90;;;;;;4441767;32;20554;-64
2022/01/09 05:23:10;;;;;;;310.67;296.43;;;5.60;99.90;;;;;;4449558;32;20192;-64
2022/01/09 05:25:44;;;;;;;331.07;315.30;;;5.60;99.90;;;;;;4439082;32;20229;-64
2022/01/09 05:28:16;;;;;;;318.53;303.97;;;5.60;99.90;;;;;;4443629;32;20218;-63
2022/01/09 05:30:43;;;;;;;303.80;289.43;;;5.70;99.90;;;;;;4446908;32;20481;-65
2022/01/09 05:33:10;;;;;;;309.63;295.77;;;5.60;99.90;;;;;;4439038;32;20158;-63
2022/01/09 05:35:40;;;;;;;324.63;309.23;;;5.60;99.90;;;;;;4437536;32;20169;-62
2022/01/09 05:38:12;;;;;;;322.73;307.97;;;5.50;99.90;;;;;;4443369;32;20570;-62
2022/01/09 05:40:43;;;;;;;317.63;303.63;;;5.60;99.90;;;;;;4443062;32;20154;-63
2022/01/09 05:43:11;;;;;;;319.27;304.17;;;5.50;99.90;;;;;;4445153;32;20152;-63
2022/01/09 05:45:41;;;;;;;332.07;317.57;;;5.40;99.90;;;;;;4448709;32;20195;-64
2022/01/09 05:48:14;;;;;;;341.20;325.27;;;5.30;99.90;;;;;;4443230;32;20257;-64
2022/01/09 05:50:43;;;;;;;330.07;315.53;;;5.20;99.90;;;;;;4452152;32;20150;-64
2022/01/09 05:53:15;;;;;;;348.63;332.90;;;5.10;99.90;;;;;;4442059;32;20651;-63
2022/01/09 05:55:44;;;;;;;351.23;334.83;;;4.90;99.90;;;;;;4437253;32;20210;-63
2022/01/09 05:58:11;;;;;;;354.70;338.13;;;4.90;99.90;;;;;;4437621;32;20173;-64
2022/01/09 06:00:38;;;;;;;337.43;322.23;;;4.80;99.90;;;;;;4446601;32;20518;-63
2022/01/09 06:03:05;;;;;;;342.53;326.80;;;4.80;99.90;;;;;;4436207;32;20155;-64
2022/01/09 06:05:37;;;;;;;368.60;351.13;;;4.70;99.90;;;;;;4439235;32;20646;-63
2022/01/09 06:08:05;;;;;;;340.63;325.00;;;4.70;99.90;;;;;;4445584;32;20578;-63
2022/01/09 06:10:35;;;;;;;336.30;320.40;;;4.70;99.90;;;;;;4442355;32;20143;-63
2022/01/09 06:13:02;;;;;;;337.57;321.87;;;4.60;99.90;;;;;;4439251;32;20230;-65
2022/01/09 06:15:29;;;;;;;329.73;314.90;;;4.60;99.90;;;;;;4448365;32;20223;-62
2022/01/09 06:17:59;;;;;;;346.63;330.87;;;4.60;99.90;;;;;;4446176;32;20155;-64
2022/01/09 06:20:28;;;;;;;329.87;315.13;;;4.50;99.90;;;;;;4444498;32;20171;-64
2022/01/09 06:22:56;;;;;;;332.23;317.00;;;4.50;99.90;;;;;;4440382;32;20571;-64
2022/01/09 06:25:23;;;;;;;328.47;314.17;;;4.50;99.90;;;;;;4445060;32;20166;-63
2022/01/09 06:27:51;;;;;;;341.87;326.63;;;4.60;99.90;;;;;;4442670;32;20604;-64
2022/01/09 06:30:18;;;;;;;323.10;308.43;;;4.70;99.90;;;;;;4444001;32;20193;-63
2022/01/09 06:32:47;;;;;;;331.43;316.07;;;4.70;99.90;;;;;;4436756;32;20151;-62
2022/01/09 06:35:14;;;;;;;319.60;305.90;;;4.60;99.90;;;;;;4437592;32;20227;-62
2022/01/09 06:37:41;;;;;;;320.33;305.63;;;4.60;99.90;;;;;;4439722;32;20173;-63
2022/01/09 06:40:13;;;;;;;301.33;287.40;;;4.40;99.90;;;;;;4444830;32;20193;-63
2022/01/09 06:42:46;;;;;;;279.00;266.03;;;4.40;99.90;;;;;;4445910;32;20143;-64
2022/01/09 06:45:14;;;;;;;295.27;282.33;;;4.30;99.90;;;;;;4448241;32;20175;-64
2022/01/09 06:47:46;;;;;;;309.90;295.73;;;4.30;99.90;;;;;;4452241;32;20216;-63
2022/01/09 06:50:14;;;;;;;309.83;295.67;;;4.40;99.90;;;;;;4445242;32;20154;-64
2022/01/09 06:52:42;;;;;;;310.07;296.33;;;4.50;99.90;;;;;;4440619;32;20143;-66
2022/01/09 06:55:10;;;;;;;318.77;304.27;;;4.60;99.90;;;;;;4448530;32;20197;-64
2022/01/09 06:57:39;;;;;;;281.87;269.47;;;4.60;99.90;;;;;;4447832;32;20223;-64
2022/01/09 07:00:09;;;;;;;308.03;293.67;;;4.60;99.90;;;;;;4447247;32;20151;-64
2022/01/09 07:02:37;;;;;;;295.87;282.47;;;4.70;99.90;;;;;;4440611;32;20143;-66
2022/01/09 07:05:05;;;;;;;310.00;296.73;;;4.70;99.90;;;;;;4440509;32;20559;-64
2022/01/09 07:07:32;;;;;;;276.60;263.90;;;4.60;99.90;;;;;;4447050;32;20169;-62
2022/01/09 07:10:00;;;;;;;271.07;259.60;;;4.40;99.90;;;;;;4444850;32;20455;-63
2022/01/09 07:12:29;;;;;;;266.97;254.50;;;4.30;99.90;;;;;;4445653;32;20185;-64
2022/01/09 07:14:57;;;;;;;259.30;248.13;;;4.30;99.90;;;;;;4449106;32;20158;-63
2022/01/09 07:17:24;;;;;;;291.13;278.47;;;4.20;99.90;;;;;;4442122;32;20621;-64
2022/01/09 07:19:52;;;;;;;275.90;263.47;;;4.20;99.90;;;;;;4449100;32;20309;-66
2022/01/09 07:22:19;;;;;;;295.33;282.20;;;4.10;99.90;;;;;;4440214;32;20163;-66
2022/01/09 07:24:47;;;;;;;287.43;274.37;;;4.00;99.90;;;;;;4443409;32;20169;-64
2022/01/09 07:27:20;;;;;;;286.90;274.27;;;3.90;99.90;;;;;;4446582;32;20140;-64
2022/01/09 07:29:51;;;;;;;293.33;279.97;;;3.90;99.90;;;;;;4441941;32;20200;-64
2022/01/09 07:32:20;;;;;;;302.07;288.57;;;4.00;99.90;;;;;;4446880;32;20569;-66
2022/01/09 07:34:50;;;;;;;297.50;284.53;;;4.20;99.90;;;;;;4446058;32;20162;-63
2022/01/09 07:37:23;;;;;;;283.57;271.17;;;4.30;99.90;;;;;;4444093;32;20165;-63
2022/01/09 07:39:50;;;;;;;252.27;241.23;;;4.30;99.90;;;;;;4444600;32;20142;-63
2022/01/09 07:42:19;;;;;;;261.33;249.47;;;4.20;99.90;;;;;;4443187;32;20143;-63
2022/01/09 07:44:47;;;;;;;278.67;265.80;;;4.30;99.90;;;;;;4446089;32;20480;-63
2022/01/09 07:47:14;;;;;;;258.73;247.47;;;4.40;99.90;;;;;;4443952;32;20235;-64
2022/01/09 07:49:41;;;;;;;268.97;257.37;;;4.40;99.90;;;;;;4442530;32;20146;-63
2022/01/09 07:52:08;;;;;;;281.67;269.10;;;4.50;99.90;;;;;;4446979;32;20215;-62
2022/01/09 07:54:36;;;;;;;266.93;255.40;;;4.60;99.90;;;;;;4444948;32;20139;-62
2022/01/09 07:57:04;;;;;;;251.73;240.53;;;4.60;99.90;;;;;;4444001;32;20167;-63
2022/01/09 07:59:31;;;;;;;240.73;230.13;;;4.60;99.90;;;;;;4446356;32;20166;-63
2022/01/09 08:02:00;;;;;;;266.20;254.70;;;4.60;99.90;;;;;;4443051;32;20630;-64
2022/01/09 08:04:31;;;;;;;284.23;271.90;;;4.50;99.90;;;;;;4443655;32;20192;-63
2022/01/09 08:07:03;;;;;;;274.57;262.83;;;4.40;99.90;;;;;;4444176;32;20135;-68
2022/01/09 08:09:30;;;;;;;301.67;288.17;;;4.50;99.90;;;;;;4444494;32;20229;-64
2022/01/09 08:11:58;;;;;;;295.43;282.73;;;4.40;99.90;;;;;;4443510;32;20147;-63
2022/01/09 08:14:25;;;;;;;294.13;281.03;;;4.40;99.90;;;;;;4443985;32;20178;-63
2022/01/09 08:16:54;;;;;;;299.27;285.63;;;4.50;99.90;;;;;;4445184;32;20483;-65
2022/01/09 08:19:21;;;;;;;268.77;256.70;;;4.50;99.90;;;;;;4438954;32;20220;-67
2022/01/09 08:21:52;;;;;;;278.20;265.93;;;4.50;99.90;;;;;;4444584;32;20521;-66
2022/01/09 08:24:18;;;;;;;289.37;276.10;;;4.40;99.90;;;;;;4443919;32;20612;-61
2022/01/09 08:26:45;;;;;;;263.17;251.80;;;4.20;99.90;;;;;;4443659;32;20230;-62
2022/01/09 08:29:15;;;;;;;260.80;249.33;;;4.20;99.90;;;;;;4442362;32;20165;-64
2022/01/09 08:31:42;;;;;;;262.87;251.57;;;4.20;99.90;;;;;;4444442;32;20150;-61
2022/01/09 08:34:09;;;;;;;264.43;252.60;;;4.20;99.90;;;;;;4441963;32;20223;-64
2022/01/09 08:36:36;;;;;;;271.83;259.27;;;4.20;99.90;;;;;;4442308;32;20143;-68
2022/01/09 08:39:05;;;;;;;266.63;255.23;;;4.30;99.90;;;;;;4441786;32;20154;-64
2022/01/09 08:41:32;;;;;;;274.57;262.70;;;4.40;99.90;;;;;;4444076;32;20143;-63
2022/01/09 08:44:00;;;;;;;277.87;266.13;;;4.50;99.90;;;;;;4441562;32;20179;-65
2022/01/09 08:46:30;;;;;;;296.67;283.77;;;4.70;99.90;;;;;;4445478;32;20143;-61
2022/01/09 08:48:57;;;;;;;279.67;267.87;;;4.90;99.90;;;;;;4442021;32;20174;-64
2022/01/09 08:51:26;;;;;;;267.07;255.40;;;5.10;99.90;;;;;;4440578;32;20280;-62
2022/01/09 08:53:53;;;;;;;285.90;273.53;;;5.20;99.90;;;;;;4444975;32;20150;-64
2022/01/09 08:56:32;;;;;;;284.23;272.17;;;5.40;99.90;;;;;;4442187;32;20159;-63
2022/01/09 08:59:02;;;;;;;283.63;271.17;;;5.40;99.90;;;;;;4442901;32;20198;-63
2022/01/09 09:01:30;;;;;;;271.20;259.13;;;5.40;99.90;;;;;;4441663;32;20588;-62
2022/01/09 09:04:01;;;;;;;266.97;255.13;;;5.50;99.90;;;;;;4443256;32;20576;-65
2022/01/09 09:06:28;;;;;;;285.90;273.43;;;5.40;99.90;;;;;;4444110;32;20147;-63
2022/01/09 09:08:55;;;;;;;304.23;291.13;;;5.40;99.90;;;;;;4444614;32;20146;-63
2022/01/09 09:11:24;;;;;;;326.17;312.00;;;5.40;99.90;;;;;;4442745;32;20565;-63
2022/01/09 09:13:57;;;;;;;293.13;279.27;;;5.40;99.90;;;;;;4441146;32;20604;-64
2022/01/09 09:16:40;;;;;;;296.90;283.30;;;5.40;99.90;;;;;;4442472;32;20150;-64
2022/01/09 09:19:10;;;;;;;297.03;284.13;;;5.40;99.90;;;;;;4443435;32;20158;-64
2022/01/09 09:21:37;;;;;;;322.90;308.63;;;5.50;99.90;;;;;;4441375;32;20147;-65
2022/01/09 09:24:06;;;;;;;336.07;321.07;;;5.50;99.90;;;;;;4442123;32;20654;-65
2022/01/09 09:26:33;;;;;;;318.40;304.33;;;5.40;99.90;;;;;;4443283;32;20555;-63
2022/01/09 09:29:00;;;;;;;304.23;290.50;;;5.30;99.90;;;;;;4440695;32;20517;-65
2022/01/09 09:31:27;;;;;;;318.23;304.00;;;5.30;99.90;;;;;;4441236;32;20155;-63
2022/01/09 09:33:56;;;;;;;327.37;312.77;;;5.30;99.90;;;;;;4442081;32;20298;-63
2022/01/09 09:36:27;;;;;;;311.13;297.23;;;5.40;99.90;;;;;;4440133;32;20230;-64
2022/01/09 09:38:57;;;;;;;319.67;305.37;;;5.50;99.90;;;;;;4438808;32;20630;-63
2022/01/09 09:41:30;;;;;;;328.73;313.70;;;5.70;99.90;;;;;;4440004;32;20281;-63
2022/01/09 09:44:01;;;;;;;290.87;278.07;;;5.80;99.90;;;;;;4443043;32;20147;-62
2022/01/09 09:46:28;;;;;;;297.30;284.33;;;5.90;99.90;;;;;;4437852;32;20635;-61
2022/01/09 09:49:00;;;;;;;327.20;312.63;;;6.00;99.90;;;;;;4438784;32;20479;-61
2022/01/09 09:51:36;;;;;;;333.03;318.63;;;6.20;99.90;;;;;;4439943;32;20278;-64
2022/01/09 09:54:03;;;;;;;304.40;290.77;;;6.40;99.90;;;;;;4441234;32;20143;-62
2022/01/09 09:56:30;;;;;;;318.90;305.00;;;6.40;99.90;;;;;;4443593;32;20151;-63
2022/01/09 09:58:59;;;;;;;322.70;307.87;;;6.40;99.90;;;;;;4441508;32;20546;-63
2022/01/09 10:01:33;;;;;;;300.77;287.80;;;6.50;99.90;;;;;;4439491;32;20274;-63
2022/01/09 10:04:02;;;;;;;301.10;287.93;;;6.50;99.90;;;;;;4441292;32;20222;-63
2022/01/09 10:06:42;;;;;;;282.63;270.33;;;6.50;99.90;;;;;;4440387;32;20162;-64
2022/01/09 10:09:13;;;;;;;282.03;269.53;;;6.50;99.90;;;;;;4437693;32;20210;-63
2022/01/09 10:12:01;;;;;;;294.07;281.10;;;6.70;99.90;;;;;;4428397;32;20255;-63
2022/01/09 10:14:33;;;;;;;270.97;259.43;;;6.80;99.90;;;;;;4432555;32;20250;-63
2022/01/09 10:17:12;;;;;;;294.93;282.57;;;7.00;99.90;;;;;;4436173;32;20249;-63
2022/01/09 10:19:48;;;;;;;275.20;263.03;;;7.20;99.90;;;;;;4438035;32;20220;-63
2022/01/09 10:22:29;;;;;;;269.87;257.73;;;7.20;99.90;;;;;;4439851;32;20143;-63
2022/01/09 10:24:57;;;;;;;296.17;282.47;;;6.80;99.90;;;;;;4439302;32;20187;-63
2022/01/09 10:27:33;;;;;;;296.37;282.83;;;6.60;99.90;;;;;;4445600;32;20167;-63
2022/01/09 10:30:00;;;;;;;301.90;288.47;;;6.60;99.90;;;;;;4438912;32;20485;-62
2022/01/09 10:32:31;;;;;;;299.87;286.50;;;6.70;99.90;;;;;;4440698;32;20237;-63
2022/01/09 10:35:15;;;;;;;315.13;301.37;;;6.90;99.90;;;;;;4434917;32;20162;-64
2022/01/09 10:38:02;;;;;;;293.77;280.77;;;6.90;99.90;;;;;;4435704;32;20142;-63
2022/01/09 10:40:30;;;;;;;256.03;244.63;;;6.80;99.90;;;;;;4441345;32;20147;-63
2022/01/09 10:43:06;;;;;;;252.33;240.53;;;6.50;99.90;;;;;;4439128;32;20139;-66
2022/01/09 10:45:33;;;;;;;279.70;266.23;;;6.20;99.90;;;;;;4437405;32;20147;-65
2022/01/09 10:48:06;;;;;;;277.47;265.33;;;6.00;99.90;;;;;;4436184;32;20187;-64
2022/01/09 10:50:35;;;;;;;290.87;278.17;;;5.80;99.90;;;;;;4437666;32;20218;-63
2022/01/09 10:53:25;;;;;;;249.30;238.40;;;5.70;99.90;;;;;;4439033;32;20142;-63
2022/01/09 10:56:20;;;;;;;262.50;251.30;;;5.70;99.90;;;;;;4436415;32;20143;-64
2022/01/09 10:58:48;;;;;;;241.20;230.83;;;5.60;99.90;;;;;;4389844;32;20624;-63
2022/01/09 11:01:23;;;;;;;242.17;231.73;;;5.70;99.90;;;;;;4393305;32;20235;-62
2022/01/09 11:04:06;;;;;;;234.13;223.43;;;5.50;99.90;;;;;;4392862;32;20716;-64
2022/01/09 11:06:47;;;;;;;228.07;218.30;;;5.50;99.90;;;;;;4393792;32;20239;-63
2022/01/09 11:09:54;;;;;;;182.57;174.53;;;5.60;99.90;;;;;;4390519;32;20183;-65
2022/01/09 11:12:33;;;;;;;;;;;;;;;;;;;;;
2022/01/09 11:15:01;;;;;;;241.27;231.33;;;6.00;99.90;;;;;;4389955;32;20179;-63
2022/01/09 11:17:32;;;;;;;204.53;196.00;;;6.20;99.90;;;;;;4389387;32;20168;-65
2022/01/09 11:20:09;;;;;;;189.37;181.03;;;6.50;99.90;;;;;;4389149;32;20237;-65
2022/01/09 11:22:36;;;;;;;192.90;184.77;;;6.40;99.90;;;;;;4387868;32;20497;-63
2022/01/09 11:25:17;;;;;;;224.70;214.80;;;6.10;99.90;;;;;;4389715;32;20228;-64
2022/01/09 11:28:12;;;;;;;230.70;220.83;;;6.00;99.90;;;;;;4390629;32;20175;-64
2022/01/09 11:31:17;;;;;;;215.87;206.43;;;6.20;99.90;;;;;;4386983;32;20229;-64
2022/01/09 11:34:00;;;;;;;202.90;194.07;;;6.30;99.90;;;;;;4395382;32;20192;-64
2022/01/09 11:36:41;;;;;;;230.37;219.87;;;6.10;99.90;;;;;;4427274;32;20168;-61
2022/01/09 11:39:17;;;;;;;242.37;231.60;;;6.10;99.90;;;;;;4427030;32;20147;-64
2022/01/09 11:42:23;;;;;;;262.37;251.37;;;6.00;99.90;;;;;;4425929;32;20139;-65
2022/01/09 11:44:54;;;;;;;228.87;219.03;;;6.10;99.90;;;;;;4425562;32;20138;-64
2022/01/09 11:47:24;;;;;;;280.80;268.27;;;6.10;99.90;;;;;;4420885;32;20219;-62
2022/01/09 11:50:16;;;;;;;308.83;295.43;;;6.30;99.90;;;;;;4419318;32;20190;-63
2022/01/09 11:53:04;;;;;;;292.57;279.73;;;6.50;99.90;;;;;;4418864;32;20222;-64
2022/01/09 11:55:41;;;;;;;281.60;269.27;;;6.50;99.90;;;;;;4425892;32;20222;-64
2022/01/09 11:58:11;;;;;;;269.43;257.50;;;6.50;99.90;;;;;;4429187;32;20208;-64
2022/01/09 12:00:41;;;;;;;279.07;267.23;;;6.40;99.90;;;;;;4447137;32;20462;-63
2022/01/09 12:03:38;;;;;;;279.20;266.87;;;6.20;99.90;;;;;;4452812;32;20226;-64
2022/01/09 12:06:08;;;;;;;288.80;276.30;;;6.20;99.90;;;;;;4386302;32;20175;-64
2022/01/09 12:09:09;;;;;;;300.57;287.23;;;6.40;99.90;;;;;;4376442;32;20148;-64
2022/01/09 12:12:10;;;;;;;297.33;283.97;;;6.50;99.90;;;;;;4378025;32;20442;-63
2022/01/09 12:14:58;;;;;;;302.87;289.83;;;6.70;99.90;;;;;;4374364;32;20178;-64
2022/01/09 12:17:40;;;;;;;252.97;242.03;;;6.80;99.90;;;;;;4385759;32;20148;-63
2022/01/09 12:20:29;;;;;;;296.20;282.77;;;6.70;99.90;;;;;;4384256;32;20222;-64
2022/01/09 12:23:04;;;;;;;274.20;261.87;;;6.80;99.90;;;;;;4386915;32;20573;-64
2022/01/09 12:25:51;;;;;;;316.17;302.17;;;7.10;99.90;;;;;;4386743;32;20159;-64
2022/01/09 12:28:23;;;;;;;276.80;264.40;;;7.40;99.90;;;;;;4380601;32;20178;-64
2022/01/09 12:30:55;;;;;;;242.40;231.50;;;7.60;99.90;;;;;;4376548;32;20210;-63
2022/01/09 12:33:49;;;;;;;255.97;244.43;;;7.60;99.90;;;;;;4382888;32;20172;-63
2022/01/09 12:36:26;;;;;;;240.60;229.90;;;7.80;99.90;;;;;;4382028;32;20694;-64